sensor_id;sensor_type;location;lat;lon;timestamp;P1;durP1;ratioP1;P2;durP2;ratioP2
73023;SDS011;61199;47.526;8.538;2022-10-16T00:01:27;19.10;;;3.90;;
73023;SDS011;61199;47.526;8.538;2022-10-16T00:03:56;15.33;;;3.90;;
73023;SDS011;61199;47.526;8.538;2022-10-16T00:06:24;8.83;;;3.30;;
73023;SDS011;61199;47.526;8.538;2022-10-16T00:08:51;13.73;;;3.10;;
73023;SDS011;61199;47.526;8.538;2022-10-16T00:13:50;10.93;;;3.67;;
73023;SDS011;61199;47.526;8.538;2022-10-16T00:16:18;11.10;;;3.30;;
73023;SDS011;61199;47.526;8.538;2022-10-16T00:18:44;11.20;;;4.00;;
73023;SDS011;61199;47.526;8.538;2022-10-16T00:21:12;19.73;;;3.83;;
73023;SDS011;61199;47.526;8.538;2022-10-16T00:23:41;20.80;;;4.40;;
73023;SDS011;61199;47.526;8.538;2022-10-16T00:26:15;16.33;;;4.50;;
73023;SDS011;61199;47.526;8.538;2022-10-16T00:28:42;16.90;;;3.23;;
73023;SDS011;61199;47.526;8.538;2022-10-16T00:31:12;13.47;;;3.47;;
73023;SDS011;61199;47.526;8.538;2022-10-16T00:33:39;17.03;;;3.70;;
73023;SDS011;61199;47.526;8.538;2022-10-16T00:36:07;16.53;;;3.70;;
73023;SDS011;61199;47.526;8.538;2022-10-16T00:38:35;11.13;;;3.30;;
73023;SDS011;61199;47.526;8.538;2022-10-16T00:41:04;23.93;;;3.30;;
73023;SDS011;61199;47.526;8.538;2022-10-16T00:46:10;17.23;;;3.37;;
73023;SDS011;61199;47.526;8.538;2022-10-16T00:48:42;7.90;;;3.27;;
73023;SDS011;61199;47.526;8.538;2022-10-16T00:51:13;17.17;;;4.47;;
73023;SDS011;61199;47.526;8.538;2022-10-16T00:53:40;9.30;;;3.70;;
73023;SDS011;61199;47.526;8.538;2022-10-16T00:56:06;13.90;;;3.40;;
73023;SDS011;61199;47.526;8.538;2022-10-16T00:58:33;11.10;;;3.27;;
73023;SDS011;61199;47.526;8.538;2022-10-16T01:00:59;17.50;;;3.20;;
73023;SDS011;61199;47.526;8.538;2022-10-16T01:06:07;10.20;;;3.10;;
73023;SDS011;61199;47.526;8.538;2022-10-16T01:08:58;8.60;;;3.03;;
73023;SDS011;61199;47.526;8.538;2022-10-16T01:14:39;13.90;;;3.40;;
73023;SDS011;61199;47.526;8.538;2022-10-16T01:22:33;9.43;;;3.37;;
73023;SDS011;61199;47.526;8.538;2022-10-16T01:25:25;16.53;;;3.30;;
73023;SDS011;61199;47.526;8.538;2022-10-16T01:28:04;14.10;;;3.53;;
73023;SDS011;61199;47.526;8.538;2022-10-16T01:30:35;13.97;;;3.37;;
73023;SDS011;61199;47.526;8.538;2022-10-16T01:33:22;13.17;;;3.10;;
73023;SDS011;61199;47.526;8.538;2022-10-16T01:35:55;23.70;;;3.93;;
73023;SDS011;61199;47.526;8.538;2022-10-16T01:38:34;10.80;;;3.20;;
73023;SDS011;61199;47.526;8.538;2022-10-16T01:41:14;8.43;;;3.00;;
73023;SDS011;61199;47.526;8.538;2022-10-16T01:43:49;12.97;;;3.00;;
73023;SDS011;61199;47.526;8.538;2022-10-16T01:46:19;14.30;;;3.33;;
73023;SDS011;61199;47.526;8.538;2022-10-16T01:48:48;25.10;;;3.17;;
73023;SDS011;61199;47.526;8.538;2022-10-16T01:51:16;15.30;;;3.40;;
73023;SDS011;61199;47.526;8.538;2022-10-16T01:53:47;17.53;;;3.33;;
73023;SDS011;61199;47.526;8.538;2022-10-16T01:56:17;15.47;;;3.40;;
73023;SDS011;61199;47.526;8.538;2022-10-16T01:58:46;14.43;;;3.20;;
73023;SDS011;61199;47.526;8.538;2022-10-16T02:01:16;11.03;;;3.30;;
73023;SDS011;61199;47.526;8.538;2022-10-16T02:03:48;20.00;;;3.20;;
73023;SDS011;61199;47.526;8.538;2022-10-16T02:06:18;10.07;;;2.67;;
73023;SDS011;61199;47.526;8.538;2022-10-16T02:08:45;8.80;;;3.00;;
73023;SDS011;61199;47.526;8.538;2022-10-16T02:11:12;11.67;;;2.60;;
73023;SDS011;61199;47.526;8.538;2022-10-16T02:13:41;10.03;;;3.20;;
73023;SDS011;61199;47.526;8.538;2022-10-16T02:16:11;8.43;;;2.97;;
73023;SDS011;61199;47.526;8.538;2022-10-16T02:18:40;11.70;;;3.00;;
73023;SDS011;61199;47.526;8.538;2022-10-16T02:29:46;6.97;;;3.10;;
73023;SDS011;61199;47.526;8.538;2022-10-16T02:32:20;12.60;;;2.57;;
73023;SDS011;61199;47.526;8.538;2022-10-16T02:34:50;10.93;;;2.80;;
73023;SDS011;61199;47.526;8.538;2022-10-16T02:37:17;14.70;;;3.73;;
73023;SDS011;61199;47.526;8.538;2022-10-16T02:39:45;6.73;;;2.70;;
73023;SDS011;61199;47.526;8.538;2022-10-16T02:42:12;11.70;;;3.47;;
73023;SDS011;61199;47.526;8.538;2022-10-16T02:44:39;9.90;;;3.40;;
73023;SDS011;61199;47.526;8.538;2022-10-16T02:47:05;9.77;;;2.97;;
73023;SDS011;61199;47.526;8.538;2022-10-16T02:49:32;14.50;;;3.10;;
73023;SDS011;61199;47.526;8.538;2022-10-16T02:51:58;6.97;;;3.00;;
73023;SDS011;61199;47.526;8.538;2022-10-16T02:54:25;20.43;;;3.20;;
73023;SDS011;61199;47.526;8.538;2022-10-16T02:56:51;16.43;;;3.40;;
73023;SDS011;61199;47.526;8.538;2022-10-16T02:59:17;7.90;;;2.80;;
73023;SDS011;61199;47.526;8.538;2022-10-16T03:01:44;13.83;;;3.27;;
73023;SDS011;61199;47.526;8.538;2022-10-16T03:04:10;8.10;;;3.27;;
73023;SDS011;61199;47.526;8.538;2022-10-16T03:06:37;7.30;;;3.10;;
73023;SDS011;61199;47.526;8.538;2022-10-16T03:09:03;14.97;;;3.50;;
73023;SDS011;61199;47.526;8.538;2022-10-16T03:11:29;17.27;;;3.30;;
73023;SDS011;61199;47.526;8.538;2022-10-16T03:13:55;8.73;;;2.90;;
73023;SDS011;61199;47.526;8.538;2022-10-16T03:16:22;7.43;;;2.80;;
73023;SDS011;61199;47.526;8.538;2022-10-16T03:18:49;25.57;;;3.57;;
73023;SDS011;61199;47.526;8.538;2022-10-16T03:21:16;11.27;;;3.30;;
73023;SDS011;61199;47.526;8.538;2022-10-16T03:23:42;15.07;;;3.00;;
73023;SDS011;61199;47.526;8.538;2022-10-16T03:26:09;13.60;;;4.50;;
73023;SDS011;61199;47.526;8.538;2022-10-16T03:28:35;11.40;;;3.70;;
73023;SDS011;61199;47.526;8.538;2022-10-16T03:31:01;19.70;;;4.17;;
73023;SDS011;61199;47.526;8.538;2022-10-16T03:33:28;4.53;;;3.13;;
73023;SDS011;61199;47.526;8.538;2022-10-16T03:35:54;7.63;;;3.13;;
73023;SDS011;61199;47.526;8.538;2022-10-16T03:38:21;5.80;;;3.53;;
73023;SDS011;61199;47.526;8.538;2022-10-16T03:40:47;6.93;;;2.63;;
73023;SDS011;61199;47.526;8.538;2022-10-16T03:43:14;6.10;;;2.90;;
73023;SDS011;61199;47.526;8.538;2022-10-16T03:45:45;10.70;;;3.20;;
73023;SDS011;61199;47.526;8.538;2022-10-16T03:48:11;15.13;;;3.50;;
73023;SDS011;61199;47.526;8.538;2022-10-16T03:50:38;8.13;;;3.43;;
73023;SDS011;61199;47.526;8.538;2022-10-16T03:53:04;15.33;;;5.07;;
73023;SDS011;61199;47.526;8.538;2022-10-16T03:55:31;14.83;;;4.40;;
73023;SDS011;61199;47.526;8.538;2022-10-16T03:57:57;10.27;;;4.47;;
73023;SDS011;61199;47.526;8.538;2022-10-16T04:00:23;8.73;;;5.13;;
73023;SDS011;61199;47.526;8.538;2022-10-16T04:02:50;6.80;;;4.43;;
73023;SDS011;61199;47.526;8.538;2022-10-16T04:05:16;12.23;;;3.30;;
73023;SDS011;61199;47.526;8.538;2022-10-16T04:07:42;9.73;;;2.80;;
73023;SDS011;61199;47.526;8.538;2022-10-16T04:10:09;4.40;;;2.30;;
73023;SDS011;61199;47.526;8.538;2022-10-16T04:12:35;5.73;;;3.00;;
73023;SDS011;61199;47.526;8.538;2022-10-16T04:15:02;12.20;;;3.03;;
73023;SDS011;61199;47.526;8.538;2022-10-16T04:17:28;8.30;;;2.90;;
73023;SDS011;61199;47.526;8.538;2022-10-16T04:19:55;11.13;;;3.87;;
73023;SDS011;61199;47.526;8.538;2022-10-16T04:22:21;9.43;;;3.33;;
73023;SDS011;61199;47.526;8.538;2022-10-16T04:24:48;8.53;;;3.37;;
73023;SDS011;61199;47.526;8.538;2022-10-16T04:27:14;9.90;;;3.10;;
73023;SDS011;61199;47.526;8.538;2022-10-16T04:29:40;17.67;;;3.13;;
73023;SDS011;61199;47.526;8.538;2022-10-16T04:32:08;21.97;;;3.37;;
73023;SDS011;61199;47.526;8.538;2022-10-16T04:34:35;14.53;;;3.37;;
73023;SDS011;61199;47.526;8.538;2022-10-16T04:37:01;7.00;;;2.90;;
73023;SDS011;61199;47.526;8.538;2022-10-16T04:39:27;6.87;;;3.30;;
73023;SDS011;61199;47.526;8.538;2022-10-16T04:41:54;14.97;;;3.20;;
73023;SDS011;61199;47.526;8.538;2022-10-16T04:44:20;10.23;;;3.30;;
73023;SDS011;61199;47.526;8.538;2022-10-16T04:46:46;7.43;;;2.80;;
73023;SDS011;61199;47.526;8.538;2022-10-16T04:49:13;9.43;;;2.97;;
73023;SDS011;61199;47.526;8.538;2022-10-16T04:51:39;10.60;;;2.83;;
73023;SDS011;61199;47.526;8.538;2022-10-16T04:54:05;9.83;;;2.70;;
73023;SDS011;61199;47.526;8.538;2022-10-16T04:56:32;6.23;;;2.40;;
73023;SDS011;61199;47.526;8.538;2022-10-16T04:58:58;8.83;;;3.07;;
73023;SDS011;61199;47.526;8.538;2022-10-16T05:01:24;9.97;;;2.77;;
73023;SDS011;61199;47.526;8.538;2022-10-16T05:03:51;11.53;;;3.20;;
73023;SDS011;61199;47.526;8.538;2022-10-16T05:06:17;8.00;;;2.47;;
73023;SDS011;61199;47.526;8.538;2022-10-16T05:08:43;5.70;;;2.70;;
73023;SDS011;61199;47.526;8.538;2022-10-16T05:11:10;7.80;;;2.80;;
73023;SDS011;61199;47.526;8.538;2022-10-16T05:13:36;8.53;;;3.30;;
73023;SDS011;61199;47.526;8.538;2022-10-16T05:16:02;8.23;;;3.10;;
73023;SDS011;61199;47.526;8.538;2022-10-16T05:18:29;8.17;;;3.40;;
73023;SDS011;61199;47.526;8.538;2022-10-16T05:20:55;5.23;;;2.60;;
73023;SDS011;61199;47.526;8.538;2022-10-16T05:23:21;4.93;;;2.53;;
73023;SDS011;61199;47.526;8.538;2022-10-16T05:25:52;5.20;;;3.17;;
73023;SDS011;61199;47.526;8.538;2022-10-16T05:28:19;4.37;;;2.80;;
73023;SDS011;61199;47.526;8.538;2022-10-16T05:30:46;10.67;;;3.53;;
73023;SDS011;61199;47.526;8.538;2022-10-16T05:33:12;6.90;;;3.03;;
73023;SDS011;61199;47.526;8.538;2022-10-16T05:35:39;8.90;;;3.40;;
73023;SDS011;61199;47.526;8.538;2022-10-16T05:38:05;4.40;;;2.70;;
73023;SDS011;61199;47.526;8.538;2022-10-16T05:40:31;6.00;;;2.80;;
73023;SDS011;61199;47.526;8.538;2022-10-16T05:42:58;12.27;;;2.97;;
73023;SDS011;61199;47.526;8.538;2022-10-16T05:45:24;6.37;;;2.50;;
73023;SDS011;61199;47.526;8.538;2022-10-16T05:47:51;7.90;;;2.70;;
73023;SDS011;61199;47.526;8.538;2022-10-16T05:50:17;5.67;;;2.20;;
73023;SDS011;61199;47.526;8.538;2022-10-16T05:52:43;12.40;;;2.67;;
73023;SDS011;61199;47.526;8.538;2022-10-16T05:55:09;3.23;;;2.37;;
73023;SDS011;61199;47.526;8.538;2022-10-16T05:57:36;10.77;;;2.80;;
73023;SDS011;61199;47.526;8.538;2022-10-16T06:00:02;18.97;;;3.53;;
73023;SDS011;61199;47.526;8.538;2022-10-16T06:02:29;24.37;;;3.57;;
73023;SDS011;61199;47.526;8.538;2022-10-16T06:04:56;8.23;;;3.20;;
73023;SDS011;61199;47.526;8.538;2022-10-16T06:07:22;5.87;;;2.60;;
73023;SDS011;61199;47.526;8.538;2022-10-16T06:09:50;15.97;;;3.20;;
73023;SDS011;61199;47.526;8.538;2022-10-16T06:12:17;17.37;;;2.87;;
73023;SDS011;61199;47.526;8.538;2022-10-16T06:14:44;4.60;;;2.40;;
73023;SDS011;61199;47.526;8.538;2022-10-16T06:17:11;3.13;;;2.30;;
73023;SDS011;61199;47.526;8.538;2022-10-16T06:19:37;9.77;;;2.53;;
73023;SDS011;61199;47.526;8.538;2022-10-16T06:22:03;9.83;;;2.33;;
73023;SDS011;61199;47.526;8.538;2022-10-16T06:24:30;11.10;;;2.73;;
73023;SDS011;61199;47.526;8.538;2022-10-16T06:26:56;6.77;;;1.93;;
73023;SDS011;61199;47.526;8.538;2022-10-16T06:29:23;5.43;;;2.53;;
73023;SDS011;61199;47.526;8.538;2022-10-16T06:31:49;10.90;;;2.57;;
73023;SDS011;61199;47.526;8.538;2022-10-16T06:34:15;5.40;;;2.30;;
73023;SDS011;61199;47.526;8.538;2022-10-16T06:36:42;18.63;;;2.63;;
73023;SDS011;61199;47.526;8.538;2022-10-16T06:39:09;10.60;;;2.37;;
73023;SDS011;61199;47.526;8.538;2022-10-16T06:41:35;6.13;;;2.57;;
73023;SDS011;61199;47.526;8.538;2022-10-16T06:44:04;18.40;;;2.33;;
73023;SDS011;61199;47.526;8.538;2022-10-16T06:46:31;11.23;;;2.53;;
73023;SDS011;61199;47.526;8.538;2022-10-16T06:48:57;6.90;;;2.60;;
73023;SDS011;61199;47.526;8.538;2022-10-16T06:51:24;5.10;;;2.40;;
73023;SDS011;61199;47.526;8.538;2022-10-16T06:53:52;10.00;;;3.03;;
73023;SDS011;61199;47.526;8.538;2022-10-16T06:56:29;3.20;;;2.30;;
73023;SDS011;61199;47.526;8.538;2022-10-16T06:58:57;6.70;;;2.80;;
73023;SDS011;61199;47.526;8.538;2022-10-16T07:01:24;14.80;;;3.10;;
73023;SDS011;61199;47.526;8.538;2022-10-16T07:03:51;5.80;;;2.57;;
73023;SDS011;61199;47.526;8.538;2022-10-16T07:06:19;3.70;;;2.53;;
73023;SDS011;61199;47.526;8.538;2022-10-16T07:08:47;5.60;;;2.80;;
73023;SDS011;61199;47.526;8.538;2022-10-16T07:11:15;12.50;;;3.53;;
73023;SDS011;61199;47.526;8.538;2022-10-16T07:13:44;4.23;;;2.60;;
73023;SDS011;61199;47.526;8.538;2022-10-16T07:16:20;21.30;;;2.90;;
73023;SDS011;61199;47.526;8.538;2022-10-16T07:18:48;8.60;;;2.80;;
73023;SDS011;61199;47.526;8.538;2022-10-16T07:21:16;17.00;;;2.53;;
73023;SDS011;61199;47.526;8.538;2022-10-16T07:23:45;6.03;;;2.80;;
73023;SDS011;61199;47.526;8.538;2022-10-16T07:26:16;2.87;;;2.50;;
73023;SDS011;61199;47.526;8.538;2022-10-16T07:28:43;3.27;;;2.10;;
73023;SDS011;61199;47.526;8.538;2022-10-16T07:31:11;3.33;;;2.30;;
73023;SDS011;61199;47.526;8.538;2022-10-16T07:33:40;3.83;;;2.10;;
73023;SDS011;61199;47.526;8.538;2022-10-16T07:36:09;7.93;;;2.40;;
73023;SDS011;61199;47.526;8.538;2022-10-16T07:38:41;4.50;;;2.60;;
73023;SDS011;61199;47.526;8.538;2022-10-16T07:41:12;5.53;;;2.50;;
73023;SDS011;61199;47.526;8.538;2022-10-16T07:43:46;5.43;;;2.30;;
73023;SDS011;61199;47.526;8.538;2022-10-16T07:46:16;9.37;;;2.87;;
73023;SDS011;61199;47.526;8.538;2022-10-16T07:48:43;4.30;;;2.50;;
73023;SDS011;61199;47.526;8.538;2022-10-16T07:51:14;3.67;;;2.10;;
73023;SDS011;61199;47.526;8.538;2022-10-16T07:53:42;11.93;;;2.90;;
73023;SDS011;61199;47.526;8.538;2022-10-16T07:56:08;5.33;;;2.23;;
73023;SDS011;61199;47.526;8.538;2022-10-16T07:58:35;6.63;;;2.63;;
73023;SDS011;61199;47.526;8.538;2022-10-16T08:01:07;4.00;;;2.00;;
73023;SDS011;61199;47.526;8.538;2022-10-16T08:03:35;5.47;;;2.80;;
73023;SDS011;61199;47.526;8.538;2022-10-16T08:06:01;4.50;;;2.33;;
73023;SDS011;61199;47.526;8.538;2022-10-16T08:08:29;6.20;;;2.20;;
73023;SDS011;61199;47.526;8.538;2022-10-16T08:10:55;5.50;;;2.30;;
73023;SDS011;61199;47.526;8.538;2022-10-16T08:13:22;4.20;;;2.33;;
73023;SDS011;61199;47.526;8.538;2022-10-16T08:15:49;11.53;;;2.43;;
73023;SDS011;61199;47.526;8.538;2022-10-16T08:18:15;21.53;;;2.67;;
73023;SDS011;61199;47.526;8.538;2022-10-16T08:20:42;6.17;;;2.83;;
73023;SDS011;61199;47.526;8.538;2022-10-16T08:23:09;3.53;;;2.40;;
73023;SDS011;61199;47.526;8.538;2022-10-16T08:25:37;4.73;;;2.80;;
73023;SDS011;61199;47.526;8.538;2022-10-16T08:28:04;13.67;;;2.87;;
73023;SDS011;61199;47.526;8.538;2022-10-16T08:30:32;5.10;;;2.30;;
73023;SDS011;61199;47.526;8.538;2022-10-16T08:32:59;13.27;;;4.53;;
73023;SDS011;61199;47.526;8.538;2022-10-16T08:35:26;7.83;;;2.80;;
73023;SDS011;61199;47.526;8.538;2022-10-16T08:37:53;9.10;;;3.77;;
73023;SDS011;61199;47.526;8.538;2022-10-16T08:40:20;4.40;;;2.40;;
73023;SDS011;61199;47.526;8.538;2022-10-16T08:48:48;3.53;;;2.33;;
73023;SDS011;61199;47.526;8.538;2022-10-16T08:57:11;6.10;;;2.30;;
73023;SDS011;61199;47.526;8.538;2022-10-16T08:59:49;12.53;;;2.90;;
73023;SDS011;61199;47.526;8.538;2022-10-16T09:02:32;5.43;;;2.40;;
73023;SDS011;61199;47.526;8.538;2022-10-16T09:08:15;6.03;;;3.10;;
73023;SDS011;61199;47.526;8.538;2022-10-16T09:13:26;8.77;;;2.90;;
73023;SDS011;61199;47.526;8.538;2022-10-16T09:21:41;6.40;;;2.80;;
73023;SDS011;61199;47.526;8.538;2022-10-16T09:24:14;9.10;;;2.83;;
73023;SDS011;61199;47.526;8.538;2022-10-16T09:26:42;10.77;;;2.60;;
73023;SDS011;61199;47.526;8.538;2022-10-16T09:29:11;6.30;;;2.87;;
73023;SDS011;61199;47.526;8.538;2022-10-16T09:31:39;6.63;;;3.30;;
73023;SDS011;61199;47.526;8.538;2022-10-16T09:34:06;6.60;;;2.33;;
73023;SDS011;61199;47.526;8.538;2022-10-16T09:36:44;5.53;;;2.30;;
73023;SDS011;61199;47.526;8.538;2022-10-16T09:39:12;8.17;;;3.20;;
73023;SDS011;61199;47.526;8.538;2022-10-16T09:41:39;7.43;;;2.83;;
73023;SDS011;61199;47.526;8.538;2022-10-16T09:44:18;6.47;;;2.40;;
73023;SDS011;61199;47.526;8.538;2022-10-16T09:46:49;4.80;;;2.30;;
73023;SDS011;61199;47.526;8.538;2022-10-16T09:49:26;7.57;;;1.93;;
73023;SDS011;61199;47.526;8.538;2022-10-16T09:52:06;12.77;;;2.03;;
73023;SDS011;61199;47.526;8.538;2022-10-16T09:54:52;3.40;;;2.43;;
73023;SDS011;61199;47.526;8.538;2022-10-16T09:57:26;4.40;;;2.40;;
73023;SDS011;61199;47.526;8.538;2022-10-16T09:59:54;8.53;;;2.40;;
73023;SDS011;61199;47.526;8.538;2022-10-16T10:02:26;4.60;;;2.50;;
73023;SDS011;61199;47.526;8.538;2022-10-16T10:04:56;3.93;;;2.33;;
73023;SDS011;61199;47.526;8.538;2022-10-16T10:07:24;5.23;;;2.60;;
73023;SDS011;61199;47.526;8.538;2022-10-16T10:09:53;5.33;;;2.70;;
73023;SDS011;61199;47.526;8.538;2022-10-16T10:12:23;6.20;;;3.10;;
73023;SDS011;61199;47.526;8.538;2022-10-16T10:14:56;13.20;;;3.87;;
73023;SDS011;61199;47.526;8.538;2022-10-16T10:17:25;10.30;;;3.33;;
73023;SDS011;61199;47.526;8.538;2022-10-16T10:19:57;4.57;;;2.70;;
73023;SDS011;61199;47.526;8.538;2022-10-16T10:25:12;10.40;;;2.20;;
73023;SDS011;61199;47.526;8.538;2022-10-16T10:30:41;6.23;;;2.80;;
73023;SDS011;61199;47.526;8.538;2022-10-16T10:36:05;6.37;;;1.87;;
73023;SDS011;61199;47.526;8.538;2022-10-16T10:38:38;8.57;;;2.13;;
73023;SDS011;61199;47.526;8.538;2022-10-16T10:41:15;9.90;;;2.60;;
73023;SDS011;61199;47.526;8.538;2022-10-16T10:49:45;12.40;;;2.00;;
73023;SDS011;61199;47.526;8.538;2022-10-16T10:55:09;3.17;;;1.90;;
73023;SDS011;61199;47.526;8.538;2022-10-16T11:00:34;3.43;;;2.20;;
73023;SDS011;61199;47.526;8.538;2022-10-16T11:03:23;4.80;;;2.30;;
73023;SDS011;61199;47.526;8.538;2022-10-16T11:08:51;12.13;;;2.37;;
73023;SDS011;61199;47.526;8.538;2022-10-16T11:14:19;6.23;;;1.63;;
73023;SDS011;61199;47.526;8.538;2022-10-16T11:16:54;5.47;;;2.20;;
73023;SDS011;61199;47.526;8.538;2022-10-16T11:22:26;4.80;;;2.27;;
73023;SDS011;61199;47.526;8.538;2022-10-16T11:25:00;6.00;;;2.23;;
73023;SDS011;61199;47.526;8.538;2022-10-16T11:27:49;5.10;;;1.63;;
73023;SDS011;61199;47.526;8.538;2022-10-16T11:30:24;5.07;;;1.60;;
73023;SDS011;61199;47.526;8.538;2022-10-16T11:38:03;14.10;;;1.77;;
73023;SDS011;61199;47.526;8.538;2022-10-16T11:40:41;5.00;;;1.80;;
73023;SDS011;61199;47.526;8.538;2022-10-16T11:43:19;5.00;;;2.13;;
73023;SDS011;61199;47.526;8.538;2022-10-16T11:45:54;4.53;;;1.90;;
73023;SDS011;61199;47.526;8.538;2022-10-16T11:48:27;4.67;;;1.70;;
73023;SDS011;61199;47.526;8.538;2022-10-16T11:51:05;4.17;;;1.87;;
73023;SDS011;61199;47.526;8.538;2022-10-16T11:53:59;6.03;;;1.60;;
73023;SDS011;61199;47.526;8.538;2022-10-16T11:56:32;2.37;;;1.30;;
73023;SDS011;61199;47.526;8.538;2022-10-16T11:59:06;4.60;;;1.83;;
73023;SDS011;61199;47.526;8.538;2022-10-16T12:02:28;4.70;;;2.30;;
73023;SDS011;61199;47.526;8.538;2022-10-16T12:04:49;7.27;;;2.93;;
73023;SDS011;61199;47.526;8.538;2022-10-16T12:07:26;4.27;;;2.00;;
73023;SDS011;61199;47.526;8.538;2022-10-16T12:09:58;3.17;;;2.10;;
73023;SDS011;61199;47.526;8.538;2022-10-16T12:12:38;3.60;;;1.90;;
73023;SDS011;61199;47.526;8.538;2022-10-16T12:17:47;3.33;;;1.90;;
73023;SDS011;61199;47.526;8.538;2022-10-16T12:22:54;4.10;;;1.53;;
73023;SDS011;61199;47.526;8.538;2022-10-16T12:28:04;5.10;;;1.90;;
73023;SDS011;61199;47.526;8.538;2022-10-16T12:30:52;4.23;;;1.60;;
73023;SDS011;61199;47.526;8.538;2022-10-16T12:36:14;2.87;;;1.90;;
73023;SDS011;61199;47.526;8.538;2022-10-16T12:38:52;5.03;;;1.67;;
73023;SDS011;61199;47.526;8.538;2022-10-16T12:41:27;3.97;;;1.77;;
73023;SDS011;61199;47.526;8.538;2022-10-16T12:43:56;9.20;;;2.23;;
73023;SDS011;61199;47.526;8.538;2022-10-16T12:51:54;3.47;;;1.50;;
73023;SDS011;61199;47.526;8.538;2022-10-16T12:54:22;5.97;;;1.87;;
73023;SDS011;61199;47.526;8.538;2022-10-16T12:57:01;4.33;;;1.70;;
73023;SDS011;61199;47.526;8.538;2022-10-16T12:59:35;5.20;;;1.80;;
73023;SDS011;61199;47.526;8.538;2022-10-16T13:02:16;3.50;;;1.60;;
73023;SDS011;61199;47.526;8.538;2022-10-16T13:11:15;4.13;;;1.63;;
73023;SDS011;61199;47.526;8.538;2022-10-16T13:22:05;6.10;;;2.00;;
73023;SDS011;61199;47.526;8.538;2022-10-16T13:30:08;5.13;;;2.00;;
73023;SDS011;61199;47.526;8.538;2022-10-16T13:35:27;3.50;;;1.70;;
73023;SDS011;61199;47.526;8.538;2022-10-16T13:46:05;6.73;;;3.13;;
73023;SDS011;61199;47.526;8.538;2022-10-16T13:48:37;4.57;;;2.03;;
73023;SDS011;61199;47.526;8.538;2022-10-16T13:51:05;4.53;;;2.00;;
73023;SDS011;61199;47.526;8.538;2022-10-16T13:53:35;9.70;;;1.87;;
73023;SDS011;61199;47.526;8.538;2022-10-16T13:56:03;8.90;;;1.63;;
73023;SDS011;61199;47.526;8.538;2022-10-16T13:58:30;15.90;;;1.97;;
73023;SDS011;61199;47.526;8.538;2022-10-16T14:01:15;3.70;;;1.80;;
73023;SDS011;61199;47.526;8.538;2022-10-16T14:03:59;2.57;;;1.63;;
73023;SDS011;61199;47.526;8.538;2022-10-16T14:06:28;2.53;;;1.57;;
73023;SDS011;61199;47.526;8.538;2022-10-16T14:09:03;3.50;;;1.67;;
73023;SDS011;61199;47.526;8.538;2022-10-16T14:11:32;5.57;;;1.50;;
73023;SDS011;61199;47.526;8.538;2022-10-16T14:14:02;5.27;;;1.53;;
73023;SDS011;61199;47.526;8.538;2022-10-16T14:16:29;3.33;;;1.40;;
73023;SDS011;61199;47.526;8.538;2022-10-16T14:18:59;5.23;;;1.43;;
73023;SDS011;61199;47.526;8.538;2022-10-16T14:21:27;5.97;;;1.90;;
73023;SDS011;61199;47.526;8.538;2022-10-16T14:23:54;4.70;;;1.53;;
73023;SDS011;61199;47.526;8.538;2022-10-16T14:26:22;8.10;;;1.80;;
73023;SDS011;61199;47.526;8.538;2022-10-16T14:31:38;5.30;;;2.33;;
73023;SDS011;61199;47.526;8.538;2022-10-16T14:34:22;8.80;;;2.60;;
73023;SDS011;61199;47.526;8.538;2022-10-16T14:37:08;8.73;;;2.20;;
73023;SDS011;61199;47.526;8.538;2022-10-16T14:39:43;8.87;;;3.40;;
73023;SDS011;61199;47.526;8.538;2022-10-16T14:42:16;5.73;;;1.90;;
73023;SDS011;61199;47.526;8.538;2022-10-16T14:44:45;3.80;;;2.03;;
73023;SDS011;61199;47.526;8.538;2022-10-16T14:47:13;4.43;;;2.30;;
73023;SDS011;61199;47.526;8.538;2022-10-16T14:49:48;7.50;;;2.43;;
73023;SDS011;61199;47.526;8.538;2022-10-16T14:52:14;8.37;;;1.83;;
73023;SDS011;61199;47.526;8.538;2022-10-16T14:54:41;17.83;;;1.87;;
73023;SDS011;61199;47.526;8.538;2022-10-16T14:57:15;6.37;;;1.70;;
73023;SDS011;61199;47.526;8.538;2022-10-16T14:59:44;6.93;;;1.80;;
73023;SDS011;61199;47.526;8.538;2022-10-16T15:04:47;15.80;;;1.50;;
73023;SDS011;61199;47.526;8.538;2022-10-16T15:07:14;12.03;;;1.53;;
73023;SDS011;61199;47.526;8.538;2022-10-16T15:09:41;4.07;;;1.80;;
73023;SDS011;61199;47.526;8.538;2022-10-16T15:12:14;2.30;;;1.50;;
73023;SDS011;61199;47.526;8.538;2022-10-16T15:14:41;3.97;;;1.57;;
73023;SDS011;61199;47.526;8.538;2022-10-16T15:17:08;4.20;;;1.50;;
73023;SDS011;61199;47.526;8.538;2022-10-16T15:19:36;4.07;;;1.80;;
73023;SDS011;61199;47.526;8.538;2022-10-16T15:22:02;3.93;;;1.80;;
73023;SDS011;61199;47.526;8.538;2022-10-16T15:24:29;6.10;;;1.93;;
73023;SDS011;61199;47.526;8.538;2022-10-16T15:26:55;9.00;;;1.90;;
73023;SDS011;61199;47.526;8.538;2022-10-16T15:29:21;4.43;;;1.57;;
73023;SDS011;61199;47.526;8.538;2022-10-16T15:31:48;7.63;;;1.60;;
73023;SDS011;61199;47.526;8.538;2022-10-16T15:34:14;9.07;;;2.20;;
73023;SDS011;61199;47.526;8.538;2022-10-16T15:36:41;12.90;;;1.97;;
73023;SDS011;61199;47.526;8.538;2022-10-16T15:39:17;9.73;;;2.00;;
73023;SDS011;61199;47.526;8.538;2022-10-16T15:41:45;2.43;;;1.60;;
73023;SDS011;61199;47.526;8.538;2022-10-16T15:44:16;8.23;;;1.87;;
73023;SDS011;61199;47.526;8.538;2022-10-16T15:46:43;8.80;;;2.40;;
73023;SDS011;61199;47.526;8.538;2022-10-16T15:49:09;7.37;;;2.03;;
73023;SDS011;61199;47.526;8.538;2022-10-16T15:51:38;10.93;;;2.60;;
73023;SDS011;61199;47.526;8.538;2022-10-16T15:54:05;4.03;;;2.10;;
73023;SDS011;61199;47.526;8.538;2022-10-16T15:56:32;8.70;;;2.37;;
73023;SDS011;61199;47.526;8.538;2022-10-16T15:58:59;6.63;;;2.40;;
73023;SDS011;61199;47.526;8.538;2022-10-16T16:01:26;10.73;;;2.93;;
73023;SDS011;61199;47.526;8.538;2022-10-16T16:03:55;5.73;;;2.03;;
73023;SDS011;61199;47.526;8.538;2022-10-16T16:06:22;13.27;;;3.20;;
73023;SDS011;61199;47.526;8.538;2022-10-16T16:08:50;11.70;;;2.50;;
73023;SDS011;61199;47.526;8.538;2022-10-16T16:11:17;6.40;;;2.87;;
73023;SDS011;61199;47.526;8.538;2022-10-16T16:13:44;11.40;;;5.90;;
73023;SDS011;61199;47.526;8.538;2022-10-16T16:16:11;13.43;;;3.50;;
73023;SDS011;61199;47.526;8.538;2022-10-16T16:18:39;12.23;;;4.03;;
73023;SDS011;61199;47.526;8.538;2022-10-16T16:21:06;10.03;;;4.00;;
73023;SDS011;61199;47.526;8.538;2022-10-16T16:23:33;8.10;;;2.97;;
73023;SDS011;61199;47.526;8.538;2022-10-16T16:28:30;4.97;;;2.20;;
73023;SDS011;61199;47.526;8.538;2022-10-16T16:30:56;6.20;;;2.47;;
73023;SDS011;61199;47.526;8.538;2022-10-16T16:33:23;8.67;;;2.23;;
73023;SDS011;61199;47.526;8.538;2022-10-16T16:35:50;14.10;;;2.50;;
73023;SDS011;61199;47.526;8.538;2022-10-16T16:38:16;12.37;;;2.90;;
73023;SDS011;61199;47.526;8.538;2022-10-16T16:40:42;13.77;;;2.63;;
73023;SDS011;61199;47.526;8.538;2022-10-16T16:43:09;10.13;;;3.00;;
73023;SDS011;61199;47.526;8.538;2022-10-16T16:45:35;11.80;;;2.80;;
73023;SDS011;61199;47.526;8.538;2022-10-16T16:48:02;6.23;;;3.00;;
73023;SDS011;61199;47.526;8.538;2022-10-16T16:50:28;12.27;;;3.43;;
73023;SDS011;61199;47.526;8.538;2022-10-16T16:52:54;10.97;;;3.87;;
73023;SDS011;61199;47.526;8.538;2022-10-16T16:55:21;8.90;;;3.07;;
73023;SDS011;61199;47.526;8.538;2022-10-16T16:57:50;11.30;;;2.83;;
73023;SDS011;61199;47.526;8.538;2022-10-16T17:00:16;9.77;;;2.70;;
73023;SDS011;61199;47.526;8.538;2022-10-16T17:02:43;9.70;;;2.77;;
73023;SDS011;61199;47.526;8.538;2022-10-16T17:05:10;9.20;;;3.07;;
73023;SDS011;61199;47.526;8.538;2022-10-16T17:07:37;11.70;;;2.90;;
73023;SDS011;61199;47.526;8.538;2022-10-16T17:10:07;5.77;;;2.90;;
73023;SDS011;61199;47.526;8.538;2022-10-16T17:12:33;12.03;;;5.33;;
73023;SDS011;61199;47.526;8.538;2022-10-16T17:15:00;12.70;;;6.40;;